createdAt,value
2022-10-13T00:02:34.444Z,8.3
2022-10-13T00:07:16.786Z,8.3
2022-10-13T00:12:23.200Z,8.2
2022-10-13T00:17:29.552Z,8.2
2022-10-13T00:22:59.976Z,8.2
2022-10-13T00:27:42.347Z,8.1
2022-10-13T00:32:48.823Z,8.1
2022-10-13T00:37:55.201Z,8.1
2022-10-13T00:43:01.656Z,8.1
2022-10-13T00:48:08.118Z,8.0
2022-10-13T00:53:34.573Z,8.0
2022-10-13T00:59:33.122Z,8.0
2022-10-13T01:03:27.296Z,7.9
2022-10-13T01:08:37.807Z,7.9
2022-10-13T01:14:00.298Z,7.9
2022-10-13T01:18:46.671Z,7.9
2022-10-13T01:23:53.163Z,7.8
2022-10-13T01:28:59.678Z,7.8
2022-10-13T01:35:18.224Z,7.8
2022-10-13T01:39:02.652Z,7.8
2022-10-13T01:44:09.160Z,7.7
2022-10-13T01:49:15.645Z,7.7
2022-10-13T01:54:32.175Z,7.7
2022-10-13T01:59:38.441Z,7.7
2022-10-13T02:04:44.825Z,7.8
2022-10-13T02:09:51.225Z,7.8
2022-10-13T02:14:57.796Z,7.8
2022-10-13T02:20:04.167Z,7.9
2022-10-13T02:25:38.640Z,7.9
2022-10-13T02:31:30.636Z,7.9
2022-10-13T02:36:25.042Z,8.0
2022-10-13T02:40:31.311Z,8.0
2022-10-13T02:45:41.341Z,8.1
2022-10-13T02:50:47.660Z,8.2
2022-10-13T02:55:54.035Z,8.3
2022-10-13T03:01:20.595Z,8.3
2022-10-13T03:06:05.855Z,8.4
2022-10-13T03:11:13.256Z,8.5
2022-10-13T03:16:47.752Z,8.6
2022-10-13T03:21:46.042Z,8.7
2022-10-13T03:42:51.617Z,9.1
2022-10-13T03:47:17.944Z,9.1
2022-10-13T03:52:04.334Z,9.2
2022-10-13T03:57:00.685Z,9.3
2022-10-13T04:02:21.588Z,9.4
2022-10-13T04:07:13.466Z,9.5
2022-10-13T04:12:49.900Z,9.6
2022-10-13T04:17:36.274Z,9.6
2022-10-13T04:22:56.869Z,9.7
2022-10-13T04:27:56.799Z,9.7
2022-10-13T04:32:59.245Z,9.8
2022-10-13T04:38:05.581Z,9.8
2022-10-13T04:43:11.944Z,9.9
2022-10-13T04:48:19.926Z,9.9
2022-10-13T04:53:26.374Z,9.9
2022-10-13T04:58:22.754Z,10.0
2022-10-13T05:03:39.281Z,10.0
2022-10-13T05:08:49.208Z,10.0
2022-10-13T05:13:55.820Z,10.1
2022-10-13T05:19:06.291Z,10.1
2022-10-13T05:24:08.584Z,10.1
2022-10-13T05:29:16.614Z,10.2
2022-10-13T05:34:23.009Z,10.2
2022-10-13T05:39:29.584Z,10.3
2022-10-13T05:44:36.173Z,10.3
2022-10-13T05:49:42.774Z,10.3
2022-10-13T06:00:29.402Z,10.5
2022-10-13T06:11:27.236Z,10.5
2022-10-13T06:15:49.545Z,10.6
2022-10-13T06:26:02.318Z,10.6
2022-10-13T06:36:15.076Z,10.7
2022-10-13T06:41:21.522Z,10.8
2022-10-13T06:46:41.877Z,10.8
2022-10-13T06:51:24.216Z,10.9
2022-10-13T06:56:30.673Z,10.9
2022-10-13T07:01:41.348Z,11.0
2022-10-13T07:06:43.434Z,11.0
2022-10-13T07:12:03.866Z,11.1
2022-10-13T07:17:10.220Z,11.2
2022-10-13T07:22:12.590Z,11.2
2022-10-13T07:27:39.026Z,11.3
2022-10-13T07:32:25.343Z,11.4
2022-10-13T07:37:31.726Z,11.5
2022-10-13T07:42:38.238Z,11.6
2022-10-13T07:48:04.783Z,11.8
2022-10-13T07:52:55.005Z,12.0
2022-10-13T07:57:57.399Z,12.1
2022-10-13T08:03:03.778Z,12.3
2022-10-13T08:08:29.221Z,12.4
2022-10-13T08:13:36.577Z,12.6
2022-10-13T08:18:22.929Z,12.7
2022-10-13T08:23:53.443Z,12.8
2022-10-13T08:33:42.279Z,13.1
2022-10-13T08:38:48.629Z,13.3
2022-10-13T08:44:33.969Z,13.6
2022-10-13T08:49:01.389Z,13.9
2022-10-13T08:53:57.751Z,14.2
2022-10-13T08:59:34.205Z,14.4
2022-10-13T09:04:20.518Z,14.6
2022-10-13T09:09:16.876Z,14.7
2022-10-13T09:14:53.371Z,14.7
2022-10-13T09:19:59.799Z,14.7
2022-10-13T09:24:46.140Z,14.7
2022-10-13T09:29:52.515Z,14.7
2022-10-13T09:34:58.934Z,14.7
2022-10-13T09:40:25.362Z,14.7
2022-10-13T09:45:11.710Z,14.8
2022-10-13T09:55:38.663Z,14.9
2022-10-13T10:00:31.052Z,15.0
2022-10-13T10:05:57.528Z,15.0
2022-10-13T10:10:43.828Z,15.1
2022-10-13T10:15:40.171Z,15.1
2022-10-13T10:20:56.564Z,15.1
2022-10-13T10:26:26.624Z,15.1
2022-10-13T10:30:59.427Z,15.1
2022-10-13T10:36:05.830Z,15.1
2022-10-13T10:41:46.436Z,15.2
2022-10-13T10:46:52.805Z,15.2
2022-10-13T10:51:55.168Z,15.3
2022-10-13T10:56:41.522Z,15.5
2022-10-13T11:01:48.010Z,15.7
2022-10-13T11:07:01.864Z,16.2
2022-10-13T11:12:28.373Z,16.5
2022-10-13T11:17:30.895Z,16.9
2022-10-13T11:22:16.226Z,17.3
2022-10-13T11:27:23.583Z,17.6
2022-10-13T11:32:20.324Z,17.9
2022-10-13T11:37:36.582Z,18.0
2022-10-13T11:42:42.787Z,18.2
2022-10-13T11:47:49.159Z,18.3
2022-10-13T11:52:55.638Z,18.4
2022-10-13T11:58:26.057Z,18.6
2022-10-13T12:02:58.431Z,18.8
2022-10-13T12:08:34.826Z,19.1
2022-10-13T12:13:21.256Z,19.3
2022-10-13T12:18:27.653Z,19.4
2022-10-13T12:23:34.128Z,19.6
2022-10-13T12:29:00.676Z,19.6
2022-10-13T12:33:46.936Z,19.5
2022-10-13T12:38:53.336Z,19.5
2022-10-13T12:43:49.703Z,19.4
2022-10-13T12:49:06.171Z,19.2
2022-10-13T12:54:36.596Z,19.1
2022-10-13T12:59:39.072Z,19.0
2022-10-13T13:04:25.544Z,18.8
2022-10-13T13:09:31.929Z,18.7
2022-10-13T13:14:38.332Z,18.5
2022-10-13T13:19:34.720Z,18.4
2022-10-13T13:24:50.078Z,18.2
2022-10-13T13:29:57.479Z,18.0
2022-10-13T13:35:03.983Z,17.9
2022-10-13T13:40:00.317Z,17.7
2022-10-13T13:47:36.973Z,17.6
2022-10-13T13:50:47.151Z,17.5
2022-10-13T13:55:29.475Z,17.4
2022-10-13T14:00:35.966Z,17.3
2022-10-13T14:05:42.369Z,17.2
2022-10-13T14:10:48.767Z,17.0
2022-10-13T14:15:45.127Z,16.9
2022-10-13T14:21:01.533Z,16.8
2022-10-13T14:26:21.982Z,16.7
2022-10-13T14:31:14.312Z,16.6
2022-10-13T14:36:20.710Z,16.5
2022-10-13T14:41:17.129Z,16.4
2022-10-13T14:46:33.650Z,16.3
2022-10-13T14:51:40.023Z,16.2
2022-10-13T14:56:46.398Z,16.1
2022-10-13T15:01:52.815Z,16.0
2022-10-13T15:06:49.141Z,16.0
2022-10-13T15:12:05.685Z,15.9
2022-10-13T15:18:28.986Z,15.8
2022-10-13T15:22:08.518Z,15.8
2022-10-13T15:27:24.939Z,15.7
2022-10-13T15:32:31.340Z,15.6
2022-10-13T15:37:51.741Z,15.6
2022-10-13T15:42:44.080Z,15.5
2022-10-13T15:47:50.495Z,15.4
2022-10-13T15:52:46.985Z,15.3
2022-10-13T15:58:03.379Z,15.2
2022-10-13T16:03:29.768Z,15.2
2022-10-13T16:08:40.163Z,15.1
2022-10-13T16:13:22.515Z,15.0
2022-10-13T16:18:28.894Z,14.9
2022-10-13T16:23:35.249Z,14.9
2022-10-13T16:28:41.804Z,14.8
2022-10-13T16:33:48.081Z,14.7
2022-10-13T16:38:54.464Z,14.7
2022-10-13T16:44:00.913Z,14.6
2022-10-13T16:49:07.224Z,14.6
2022-10-13T16:54:04.602Z,14.5
2022-10-13T16:59:40.131Z,14.5
2022-10-13T17:05:16.643Z,14.4
2022-10-13T17:10:28.832Z,14.4
2022-10-13T17:16:53.100Z,14.3
2022-10-13T17:20:40.342Z,14.3
2022-10-13T17:25:46.732Z,14.3
2022-10-13T17:31:17.411Z,14.2
2022-10-13T17:35:59.764Z,14.2
2022-10-13T17:41:06.161Z,14.1
2022-10-13T17:46:38.447Z,14.1
2022-10-13T17:51:18.983Z,14.0
2022-10-13T17:56:49.458Z,14.0
2022-10-13T18:01:32.015Z,14.0
2022-10-13T18:06:38.825Z,14.0
2022-10-13T18:11:49.739Z,13.9
2022-10-13T18:40:37.980Z,14.6
2022-10-13T18:45:45.325Z,14.6
2022-10-13T18:55:58.256Z,14.4
2022-10-13T19:01:04.677Z,14.2
2022-10-13T19:06:14.098Z,14.1
2022-10-13T19:11:20.526Z,14.0
2022-10-13T19:16:50.943Z,13.9
2022-10-13T19:26:39.768Z,13.8
2022-10-13T19:32:00.186Z,13.8
2022-10-13T19:36:42.531Z,13.8
2022-10-13T19:41:58.970Z,13.7
2022-10-13T19:52:11.832Z,13.7
2022-10-13T19:57:18.567Z,13.7
2022-10-13T20:02:24.607Z,13.6
2022-10-13T20:07:30.973Z,13.6
2022-10-13T20:12:27.367Z,13.6
2022-10-13T20:18:07.902Z,13.6
2022-10-13T20:23:10.382Z,13.5
2022-10-13T20:29:09.047Z,13.5
2022-10-13T20:33:03.125Z,13.5
2022-10-13T20:38:29.535Z,13.5
2022-10-13T20:43:15.886Z,13.5
2022-10-13T20:48:22.402Z,13.5
2022-10-13T20:53:52.825Z,13.5
2022-10-13T20:58:25.115Z,13.5
2022-10-13T21:04:01.583Z,13.5
2022-10-13T21:08:47.920Z,13.5
2022-10-13T21:13:54.316Z,13.5
2022-10-13T21:18:50.683Z,13.5
2022-10-13T21:24:07.192Z,13.4
2022-10-13T21:29:17.556Z,13.4
2022-10-13T21:34:20.050Z,13.4
2022-10-13T21:39:26.482Z,13.4
2022-10-13T21:44:32.841Z,13.4
2022-10-13T21:49:59.266Z,13.4
2022-10-13T21:55:57.963Z,13.4
2022-10-13T22:00:12.217Z,13.4
2022-10-13T22:04:58.584Z,13.4
2022-10-13T22:10:05.119Z,13.4
2022-10-13T22:26:36.396Z,13.3
2022-10-13T22:30:20.616Z,13.3
2022-10-13T22:36:21.124Z,13.3
2022-10-13T22:40:43.406Z,13.3
2022-10-13T22:45:49.795Z,13.3
2022-10-13T22:51:20.213Z,13.3
2022-10-13T22:56:46.649Z,13.3
2022-10-13T23:01:08.951Z,13.3
2022-10-13T23:06:15.301Z,13.3
2022-10-13T23:11:21.767Z,13.3
2022-10-13T23:16:28.297Z,13.2
2022-10-13T23:21:34.701Z,13.2
2022-10-13T23:26:41.078Z,13.2
2022-10-13T23:31:47.479Z,13.2
2022-10-13T23:36:53.822Z,13.2
2022-10-13T23:42:00.201Z,13.2
2022-10-13T23:47:10.172Z,13.2
2022-10-13T23:52:16.552Z,13.2
2022-10-13T23:57:23.331Z,13.2
